Oceanport, NJ (07757)

07:13 AM EDT die 01o September, anno 2014 (GMT -0400)
Oceanport | Change Station
CLOSE
Current Station
Personal Weather Stations
Location: Oceanport, NJ
Elevation: 20 ft
Nearby Weather Stations

Elev 20 ft 40.31 °N, 74.03 °W | Updated 2 seconds ago

Aequaliter Nubila
Aequaliter Nubila
72.1 °F
Feels Like 72.1 °F
N
0.0
Ventus Variabilis Ventus from Inter Aquilonem et Zephyrus
Gusts 0.0 mph

Hodie
High -- | Low -- °F
--% Chance of Precip.
Yesterday
High -- | Low -- °F
Precip. -- in
6:23 AM 7:27 PM
Waxing Crescent, 40% visible
Pressio 30.03 in
Visibilitas 10.0 milia passuum
Clouds Plerumque Nubila 7500 ft
Aequaliter Nubila 9000 ft
Frigus in quo Ros apparet 71 °F
Umor 97%
Rainfall 0.00 in
Snow Depth Not available.
UV 0 out of 12
Pollen 9.00 out of 12
Air Quality Not available.
Flu Activity Not available.
METAR KBLM 011055Z AUTO 26003KT 10SM BKN075 OVC090 22/20 A3003 RMK AO1

More Conditions Fewer Conditions

Pressio 30.03 in
Visibilitas 10.0 milia passuum
Clouds Plerumque Nubila 7500 ft
Aequaliter Nubila 9000 ft
Frigus in quo Ros apparet 71 °F
Umor 97%
Rainfall 0.00 in
Snow Depth Not available.
UV 0 out of 12
Pollen 9.00 out of 12
Air Quality Not available.
Flu Activity Not available.
METAR KBLM 011055Z AUTO 26003KT 10SM BKN075 OVC090 22/20 A3003 RMK AO1

More Conditions Fewer Conditions

10-Day Weather Forecast

Almanac

Astronomy

Sep. 01, 2014 Rise Set
Actual Time 6:23 AM EDT 7:27 PM EDT
Civil Twilight 5:55 AM EDT 7:55 PM EDT
Nautical Twilight 5:22 AM EDT 8:28 PM EDT
Astronomical Twilight 4:47 AM EDT 9:03 PM EDT
Moon 1:07 PM EDT 11:26 PM EDT
Length Of Visible Light 14h 00m
Length of Day
13h 04m
Tomorrow will be 2m 33s shorter.
Waxing Crescent, 40% of the Moon is Illuminated
Hodie
Waxing Crescent
Sep 2
First Quarter
Sep 8
Full
Sep 15
Last Quarter
Sep 24
New

Today's Extremes

State Highs State Lows

Community

WunderPhotos

Upload Photos

1,749,188 photos uploaded!

Nearby

Snow Depth

Station Depth Elevation
No new snow has been reported.

Earthquake Activity

City Distance Mag. Time & Date
No recent earthquake activity has been reported nearby.
Minimum magnitude displayed is 2.5.

Coastal Water Temperatures

Locus Calor
Sandy Hook, NJ 75.9 °F
Bergen Point West Reach, NJ 75.0 °F
The Battery, NY 73.9 °F

Nearby Weather Stations